sensor_id;sensor_type;location;lat;lon;timestamp;pressure;altitude;pressure_sealevel;temperature;humidity
22214;BME280;11276;43.566;27.824;2022-09-09T00:02:21;99165.00;;;19.52;100.00
22214;BME280;11276;43.566;27.824;2022-09-09T00:05:00;99166.53;;;19.38;100.00
22214;BME280;11276;43.566;27.824;2022-09-09T00:07:49;99164.50;;;19.17;100.00
22214;BME280;11276;43.566;27.824;2022-09-09T00:10:35;99175.16;;;19.17;100.00
22214;BME280;11276;43.566;27.824;2022-09-09T00:16:15;99166.28;;;19.25;100.00
22214;BME280;11276;43.566;27.824;2022-09-09T00:18:55;99166.88;;;19.35;100.00
22214;BME280;11276;43.566;27.824;2022-09-09T00:21:37;99159.72;;;19.35;100.00
22214;BME280;11276;43.566;27.824;2022-09-09T00:27:18;99131.03;;;19.29;100.00
22214;BME280;11276;43.566;27.824;2022-09-09T00:29:52;99150.19;;;19.33;100.00
22214;BME280;11276;43.566;27.824;2022-09-09T00:32:21;99141.72;;;19.29;100.00
22214;BME280;11276;43.566;27.824;2022-09-09T00:37:38;99147.34;;;19.43;100.00
22214;BME280;11276;43.566;27.824;2022-09-09T00:40:22;99126.75;;;19.20;100.00
22214;BME280;11276;43.566;27.824;2022-09-09T00:45:55;99149.72;;;19.29;100.00
22214;BME280;11276;43.566;27.824;2022-09-09T00:51:29;99147.75;;;19.23;100.00
22214;BME280;11276;43.566;27.824;2022-09-09T00:59:47;99157.13;;;19.19;100.00
22214;BME280;11276;43.566;27.824;2022-09-09T01:03:07;99151.03;;;19.03;100.00
22214;BME280;11276;43.566;27.824;2022-09-09T01:17:26;99154.63;;;18.79;100.00
22214;BME280;11276;43.566;27.824;2022-09-09T01:28:38;99149.34;;;18.63;100.00
22214;BME280;11276;43.566;27.824;2022-09-09T01:31:06;99136.34;;;18.52;100.00
22214;BME280;11276;43.566;27.824;2022-09-09T01:33:35;99125.69;;;18.52;100.00
22214;BME280;11276;43.566;27.824;2022-09-09T01:36:04;99132.22;;;18.33;100.00
22214;BME280;11276;43.566;27.824;2022-09-09T01:38:32;99124.38;;;18.47;100.00
22214;BME280;11276;43.566;27.824;2022-09-09T01:41:00;99122.34;;;18.49;100.00
22214;BME280;11276;43.566;27.824;2022-09-09T01:43:28;99129.34;;;18.59;100.00
22214;BME280;11276;43.566;27.824;2022-09-09T01:45:56;99135.00;;;18.64;100.00
22214;BME280;11276;43.566;27.824;2022-09-09T01:48:26;99133.34;;;18.63;100.00
22214;BME280;11276;43.566;27.824;2022-09-09T01:50:53;99132.69;;;18.61;100.00
22214;BME280;11276;43.566;27.824;2022-09-09T01:53:21;99129.03;;;18.62;100.00
22214;BME280;11276;43.566;27.824;2022-09-09T02:01:42;99141.03;;;18.58;100.00
22214;BME280;11276;43.566;27.824;2022-09-09T02:07:00;99126.03;;;18.40;100.00
22214;BME280;11276;43.566;27.824;2022-09-09T02:09:29;99139.38;;;18.57;100.00
22214;BME280;11276;43.566;27.824;2022-09-09T02:12:10;99138.53;;;18.56;100.00
22214;BME280;11276;43.566;27.824;2022-09-09T02:14:46;99148.69;;;18.61;100.00
22214;BME280;11276;43.566;27.824;2022-09-09T02:17:16;99131.00;;;18.52;100.00
22214;BME280;11276;43.566;27.824;2022-09-09T02:19:48;99136.84;;;18.55;100.00
22214;BME280;11276;43.566;27.824;2022-09-09T02:22:19;99128.03;;;18.46;100.00
22214;BME280;11276;43.566;27.824;2022-09-09T02:24:48;99141.03;;;18.58;100.00
22214;BME280;11276;43.566;27.824;2022-09-09T02:27:17;99142.19;;;18.55;100.00
22214;BME280;11276;43.566;27.824;2022-09-09T02:29:45;99137.69;;;18.39;100.00
22214;BME280;11276;43.566;27.824;2022-09-09T02:32:20;99134.34;;;18.54;100.00
22214;BME280;11276;43.566;27.824;2022-09-09T02:34:56;99126.00;;;18.48;100.00
22214;BME280;11276;43.566;27.824;2022-09-09T02:37:27;99120.38;;;18.35;100.00
22214;BME280;11276;43.566;27.824;2022-09-09T02:39:56;99135.84;;;18.48;100.00
22214;BME280;11276;43.566;27.824;2022-09-09T02:42:23;99125.34;;;18.55;100.00
22214;BME280;11276;43.566;27.824;2022-09-09T02:44:50;99134.88;;;18.57;100.00
22214;BME280;11276;43.566;27.824;2022-09-09T02:47:24;99140.00;;;18.59;100.00
22214;BME280;11276;43.566;27.824;2022-09-09T02:50:20;99141.69;;;18.52;100.00
22214;BME280;11276;43.566;27.824;2022-09-09T02:55:47;99138.53;;;18.40;100.00
22214;BME280;11276;43.566;27.824;2022-09-09T02:58:18;99119.75;;;18.17;100.00
22214;BME280;11276;43.566;27.824;2022-09-09T03:00:47;99143.34;;;18.44;100.00
22214;BME280;11276;43.566;27.824;2022-09-09T03:03:15;99128.53;;;18.34;100.00
22214;BME280;11276;43.566;27.824;2022-09-09T03:05:43;99143.19;;;18.46;100.00
22214;BME280;11276;43.566;27.824;2022-09-09T03:08:11;99135.34;;;18.44;100.00
22214;BME280;11276;43.566;27.824;2022-09-09T03:10:39;99142.00;;;18.48;100.00
22214;BME280;11276;43.566;27.824;2022-09-09T03:13:06;99146.00;;;18.44;100.00
22214;BME280;11276;43.566;27.824;2022-09-09T03:15:34;99126.19;;;18.39;100.00
22214;BME280;11276;43.566;27.824;2022-09-09T03:18:01;99142.50;;;18.44;100.00
22214;BME280;11276;43.566;27.824;2022-09-09T03:20:29;99109.38;;;18.38;100.00
22214;BME280;11276;43.566;27.824;2022-09-09T03:22:56;99132.38;;;18.39;100.00
22214;BME280;11276;43.566;27.824;2022-09-09T03:25:23;99116.56;;;18.38;100.00
22214;BME280;11276;43.566;27.824;2022-09-09T03:27:50;99121.69;;;18.39;100.00
22214;BME280;11276;43.566;27.824;2022-09-09T03:30:25;99133.69;;;18.52;100.00
22214;BME280;11276;43.566;27.824;2022-09-09T03:32:53;99119.03;;;18.39;100.00
22214;BME280;11276;43.566;27.824;2022-09-09T03:35:20;99113.72;;;18.31;100.00
22214;BME280;11276;43.566;27.824;2022-09-09T03:37:46;99121.41;;;18.26;100.00
22214;BME280;11276;43.566;27.824;2022-09-09T03:40:13;99135.19;;;18.46;100.00
22214;BME280;11276;43.566;27.824;2022-09-09T03:42:40;99131.34;;;18.48;100.00
22214;BME280;11276;43.566;27.824;2022-09-09T03:45:08;99124.72;;;18.28;100.00
22214;BME280;11276;43.566;27.824;2022-09-09T03:47:36;99133.88;;;18.34;100.00
22214;BME280;11276;43.566;27.824;2022-09-09T03:50:05;99125.03;;;18.41;100.00
22214;BME280;11276;43.566;27.824;2022-09-09T03:52:39;99114.22;;;18.35;100.00
22214;BME280;11276;43.566;27.824;2022-09-09T03:55:08;99149.19;;;18.40;100.00
22214;BME280;11276;43.566;27.824;2022-09-09T03:57:35;99147.53;;;18.39;100.00
22214;BME280;11276;43.566;27.824;2022-09-09T04:00:06;99144.69;;;18.40;100.00
22214;BME280;11276;43.566;27.824;2022-09-09T04:02:34;99147.69;;;18.45;100.00
22214;BME280;11276;43.566;27.824;2022-09-09T04:05:01;99127.72;;;18.33;100.00
22214;BME280;11276;43.566;27.824;2022-09-09T04:07:28;99143.03;;;18.56;100.00
22214;BME280;11276;43.566;27.824;2022-09-09T04:09:54;99153.03;;;18.45;100.00
22214;BME280;11276;43.566;27.824;2022-09-09T04:12:21;99125.38;;;18.30;100.00
22214;BME280;11276;43.566;27.824;2022-09-09T04:14:48;99118.06;;;18.24;100.00
22214;BME280;11276;43.566;27.824;2022-09-09T04:17:15;99120.06;;;18.30;100.00
22214;BME280;11276;43.566;27.824;2022-09-09T04:19:42;99156.00;;;18.50;100.00
22214;BME280;11276;43.566;27.824;2022-09-09T04:22:09;99143.50;;;18.59;100.00
22214;BME280;11276;43.566;27.824;2022-09-09T04:24:36;99127.03;;;18.56;100.00
22214;BME280;11276;43.566;27.824;2022-09-09T04:27:03;99126.47;;;18.68;100.00
22214;BME280;11276;43.566;27.824;2022-09-09T04:29:29;99148.13;;;18.81;100.00
22214;BME280;11276;43.566;27.824;2022-09-09T04:31:56;99155.25;;;18.89;100.00
22214;BME280;11276;43.566;27.824;2022-09-09T04:34:22;99157.28;;;18.87;100.00
22214;BME280;11276;43.566;27.824;2022-09-09T04:36:50;99155.25;;;18.97;100.00
22214;BME280;11276;43.566;27.824;2022-09-09T04:39:18;99149.22;;;18.95;100.00
22214;BME280;11276;43.566;27.824;2022-09-09T04:41:45;99142.84;;;19.04;100.00
22214;BME280;11276;43.566;27.824;2022-09-09T04:44:13;99150.16;;;19.10;100.00
22214;BME280;11276;43.566;27.824;2022-09-09T04:46:40;99136.38;;;19.29;100.00
22214;BME280;11276;43.566;27.824;2022-09-09T04:49:07;99122.72;;;19.24;100.00
22214;BME280;11276;43.566;27.824;2022-09-09T04:51:36;99135.63;;;19.44;100.00
22214;BME280;11276;43.566;27.824;2022-09-09T04:54:02;99142.72;;;19.59;100.00
22214;BME280;11276;43.566;27.824;2022-09-09T04:56:29;99143.69;;;19.66;100.00
22214;BME280;11276;43.566;27.824;2022-09-09T04:58:56;99146.72;;;19.86;100.00
22214;BME280;11276;43.566;27.824;2022-09-09T05:01:23;99148.50;;;20.08;100.00
22214;BME280;11276;43.566;27.824;2022-09-09T05:03:51;99141.63;;;20.14;100.00
22214;BME280;11276;43.566;27.824;2022-09-09T05:06:20;99151.00;;;20.33;100.00
22214;BME280;11276;43.566;27.824;2022-09-09T05:08:48;99148.81;;;20.51;100.00
22214;BME280;11276;43.566;27.824;2022-09-09T05:11:20;99146.06;;;20.59;100.00
22214;BME280;11276;43.566;27.824;2022-09-09T05:13:49;99148.81;;;20.66;100.00
22214;BME280;11276;43.566;27.824;2022-09-09T05:16:17;99125.47;;;20.59;100.00
22214;BME280;11276;43.566;27.824;2022-09-09T05:18:44;99136.91;;;20.83;100.00
22214;BME280;11276;43.566;27.824;2022-09-09T05:21:13;99138.66;;;21.05;100.00
22214;BME280;11276;43.566;27.824;2022-09-09T05:23:40;99139.03;;;21.17;100.00
22214;BME280;11276;43.566;27.824;2022-09-09T05:26:11;99153.72;;;21.42;100.00
22214;BME280;11276;43.566;27.824;2022-09-09T05:28:42;99148.84;;;21.45;100.00
22214;BME280;11276;43.566;27.824;2022-09-09T05:31:09;99131.81;;;21.32;100.00
22214;BME280;11276;43.566;27.824;2022-09-09T05:33:40;99135.66;;;21.65;100.00
22214;BME280;11276;43.566;27.824;2022-09-09T05:36:15;99150.44;;;21.82;100.00
22214;BME280;11276;43.566;27.824;2022-09-09T05:38:43;99124.53;;;21.89;100.00
22214;BME280;11276;43.566;27.824;2022-09-09T05:41:11;99111.47;;;22.01;100.00
22214;BME280;11276;43.566;27.824;2022-09-09T05:43:38;99137.66;;;22.27;100.00
22214;BME280;11276;43.566;27.824;2022-09-09T05:46:10;99110.56;;;22.22;100.00
22214;BME280;11276;43.566;27.824;2022-09-09T05:48:39;99130.75;;;22.39;100.00
22214;BME280;11276;43.566;27.824;2022-09-09T05:51:09;99104.78;;;22.46;100.00
22214;BME280;11276;43.566;27.824;2022-09-09T05:53:38;99123.56;;;22.74;98.39
22214;BME280;11276;43.566;27.824;2022-09-09T05:56:07;99122.78;;;22.87;97.61
22214;BME280;11276;43.566;27.824;2022-09-09T05:58:37;99107.88;;;22.78;94.62
22214;BME280;11276;43.566;27.824;2022-09-09T06:01:12;99122.44;;;22.96;92.92
22214;BME280;11276;43.566;27.824;2022-09-09T06:03:41;99129.53;;;23.17;92.92
22214;BME280;11276;43.566;27.824;2022-09-09T06:06:10;99135.34;;;23.27;92.99
22214;BME280;11276;43.566;27.824;2022-09-09T06:08:39;99140.63;;;23.48;92.35
22214;BME280;11276;43.566;27.824;2022-09-09T06:13:40;99123.72;;;23.61;87.02
22214;BME280;11276;43.566;27.824;2022-09-09T06:16:12;99126.81;;;23.78;83.53
22214;BME280;11276;43.566;27.824;2022-09-09T06:18:39;99148.19;;;24.25;83.78
22214;BME280;11276;43.566;27.824;2022-09-09T06:21:15;99130.72;;;24.74;78.82
22214;BME280;11276;43.566;27.824;2022-09-09T06:23:42;99146.50;;;25.35;76.13
22214;BME280;11276;43.566;27.824;2022-09-09T06:28:38;99141.72;;;26.31;69.17
22214;BME280;11276;43.566;27.824;2022-09-09T06:31:07;99161.84;;;27.80;62.25
22214;BME280;11276;43.566;27.824;2022-09-09T06:33:36;99152.69;;;29.73;54.58
22214;BME280;11276;43.566;27.824;2022-09-09T06:36:05;99154.44;;;31.39;50.60
22214;BME280;11276;43.566;27.824;2022-09-09T06:38:32;99166.88;;;34.14;43.73
22214;BME280;11276;43.566;27.824;2022-09-09T06:40:59;99149.97;;;32.67;44.65
22214;BME280;11276;43.566;27.824;2022-09-09T06:43:26;99165.91;;;32.85;45.46
22214;BME280;11276;43.566;27.824;2022-09-09T06:46:13;99150.47;;;34.09;41.14
22214;BME280;11276;43.566;27.824;2022-09-09T06:48:41;99157.00;;;33.88;40.14
22214;BME280;11276;43.566;27.824;2022-09-09T06:53:38;99128.84;;;35.48;35.33
22214;BME280;11276;43.566;27.824;2022-09-09T06:58:41;99141.72;;;36.59;31.90
22214;BME280;11276;43.566;27.824;2022-09-09T07:01:12;99142.41;;;36.98;30.80
22214;BME280;11276;43.566;27.824;2022-09-09T07:03:40;99128.63;;;36.51;30.89
22214;BME280;11276;43.566;27.824;2022-09-09T07:06:13;99146.03;;;36.70;30.29
22214;BME280;11276;43.566;27.824;2022-09-09T07:08:41;99150.09;;;37.25;29.96
22214;BME280;11276;43.566;27.824;2022-09-09T07:11:08;99155.44;;;38.61;28.35
22214;BME280;11276;43.566;27.824;2022-09-09T07:13:37;99131.13;;;37.24;28.80
22214;BME280;11276;43.566;27.824;2022-09-09T07:16:10;99133.84;;;37.66;28.01
22214;BME280;11276;43.566;27.824;2022-09-09T07:18:37;99157.03;;;37.98;28.35
22214;BME280;11276;43.566;27.824;2022-09-09T07:21:04;99154.91;;;39.19;26.20
22214;BME280;11276;43.566;27.824;2022-09-09T07:23:30;99148.88;;;38.90;25.86
22214;BME280;11276;43.566;27.824;2022-09-09T07:25:59;99150.13;;;39.60;25.10
22214;BME280;11276;43.566;27.824;2022-09-09T07:28:26;99148.50;;;38.50;25.03
22214;BME280;11276;43.566;27.824;2022-09-09T07:30:59;99160.25;;;37.25;27.18
22214;BME280;11276;43.566;27.824;2022-09-09T07:33:27;99162.03;;;36.58;27.46
22214;BME280;11276;43.566;27.824;2022-09-09T07:36:08;99153.81;;;38.60;25.17
22214;BME280;11276;43.566;27.824;2022-09-09T07:38:44;99140.78;;;38.80;24.04
22214;BME280;11276;43.566;27.824;2022-09-09T07:41:18;99159.31;;;38.28;23.75
22214;BME280;11276;43.566;27.824;2022-09-09T07:43:46;99160.16;;;38.74;23.42
22214;BME280;11276;43.566;27.824;2022-09-09T07:46:15;99162.97;;;38.23;24.29
22214;BME280;11276;43.566;27.824;2022-09-09T07:48:47;99159.00;;;38.16;23.78
22214;BME280;11276;43.566;27.824;2022-09-09T07:51:29;99167.88;;;38.45;23.15
22214;BME280;11276;43.566;27.824;2022-09-09T07:54:01;99142.19;;;38.63;23.69
22214;BME280;11276;43.566;27.824;2022-09-09T07:56:29;99180.53;;;37.05;24.14
22214;BME280;11276;43.566;27.824;2022-09-09T07:58:57;99149.31;;;36.38;25.61
22214;BME280;11276;43.566;27.824;2022-09-09T08:01:28;99145.63;;;37.29;25.24
22214;BME280;11276;43.566;27.824;2022-09-09T08:04:01;99143.75;;;37.25;24.62
22214;BME280;11276;43.566;27.824;2022-09-09T08:06:31;99164.44;;;38.34;22.93
22214;BME280;11276;43.566;27.824;2022-09-09T08:08:59;99156.06;;;37.08;25.13
22214;BME280;11276;43.566;27.824;2022-09-09T08:11:28;99150.25;;;37.53;24.95
22214;BME280;11276;43.566;27.824;2022-09-09T08:13:55;99138.91;;;36.93;25.48
22214;BME280;11276;43.566;27.824;2022-09-09T08:16:28;99141.59;;;37.22;26.03
22214;BME280;11276;43.566;27.824;2022-09-09T08:18:56;99120.84;;;36.87;25.47
22214;BME280;11276;43.566;27.824;2022-09-09T08:21:26;99137.88;;;37.31;25.52
22214;BME280;11276;43.566;27.824;2022-09-09T08:23:55;99150.91;;;37.26;25.88
22214;BME280;11276;43.566;27.824;2022-09-09T08:26:29;99118.75;;;37.45;25.89
22214;BME280;11276;43.566;27.824;2022-09-09T08:28:58;99124.94;;;38.71;24.90
22214;BME280;11276;43.566;27.824;2022-09-09T08:31:28;99108.69;;;37.17;26.11
22214;BME280;11276;43.566;27.824;2022-09-09T08:33:56;99117.25;;;36.91;25.45
22214;BME280;11276;43.566;27.824;2022-09-09T08:36:24;99110.59;;;38.74;24.53
22214;BME280;11276;43.566;27.824;2022-09-09T08:38:54;99114.78;;;37.56;25.38
22214;BME280;11276;43.566;27.824;2022-09-09T08:55:08;99113.06;;;35.73;29.87
22214;BME280;11276;43.566;27.824;2022-09-09T08:57:39;99100.53;;;35.08;29.86
22214;BME280;11276;43.566;27.824;2022-09-09T09:00:09;99103.41;;;36.20;28.90
22214;BME280;11276;43.566;27.824;2022-09-09T09:05:47;99095.66;;;34.95;30.63
22214;BME280;11276;43.566;27.824;2022-09-09T09:10:54;99093.78;;;35.45;30.80
22214;BME280;11276;43.566;27.824;2022-09-09T09:16:06;99102.09;;;33.89;33.95
22214;BME280;11276;43.566;27.824;2022-09-09T09:18:38;99114.97;;;34.24;31.34
22214;BME280;11276;43.566;27.824;2022-09-09T09:21:12;99107.28;;;33.91;30.65
22214;BME280;11276;43.566;27.824;2022-09-09T09:23:55;99117.06;;;32.89;31.61
22214;BME280;11276;43.566;27.824;2022-09-09T09:26:43;99117.13;;;32.52;31.28
22214;BME280;11276;43.566;27.824;2022-09-09T09:29:20;99115.97;;;32.48;29.12
22214;BME280;11276;43.566;27.824;2022-09-09T09:31:56;99136.63;;;32.39;28.75
22214;BME280;11276;43.566;27.824;2022-09-09T09:34:25;99133.00;;;31.96;30.59
22214;BME280;11276;43.566;27.824;2022-09-09T09:36:54;99122.94;;;32.29;29.34
22214;BME280;11276;43.566;27.824;2022-09-09T09:39:28;99122.56;;;31.88;27.73
22214;BME280;11276;43.566;27.824;2022-09-09T09:42:17;99090.00;;;31.45;29.04
22214;BME280;11276;43.566;27.824;2022-09-09T09:44:44;99083.00;;;31.54;29.95
22214;BME280;11276;43.566;27.824;2022-09-09T09:50:00;99082.78;;;31.07;30.21
22214;BME280;11276;43.566;27.824;2022-09-09T09:52:30;99069.72;;;30.65;30.43
22214;BME280;11276;43.566;27.824;2022-09-09T09:54:58;99083.66;;;30.35;30.50
22214;BME280;11276;43.566;27.824;2022-09-09T09:57:32;99060.78;;;30.70;31.36
22214;BME280;11276;43.566;27.824;2022-09-09T10:02:39;99091.19;;;30.28;31.39
22214;BME280;11276;43.566;27.824;2022-09-09T10:05:27;99089.91;;;29.86;29.60
22214;BME280;11276;43.566;27.824;2022-09-09T10:08:13;99077.53;;;29.90;31.19
22214;BME280;11276;43.566;27.824;2022-09-09T10:27:56;99076.22;;;29.92;34.47
22214;BME280;11276;43.566;27.824;2022-09-09T10:30:43;99082.28;;;30.00;32.84
22214;BME280;11276;43.566;27.824;2022-09-09T10:36:26;99080.66;;;30.15;29.95
22214;BME280;11276;43.566;27.824;2022-09-09T10:41:42;99074.53;;;29.75;30.21
22214;BME280;11276;43.566;27.824;2022-09-09T10:46:54;99071.34;;;29.94;30.71
22214;BME280;11276;43.566;27.824;2022-09-09T10:55:18;99064.69;;;29.12;29.84
22214;BME280;11276;43.566;27.824;2022-09-09T10:57:50;99076.47;;;29.06;30.89
22214;BME280;11276;43.566;27.824;2022-09-09T11:00:21;99083.06;;;29.10;32.09
22214;BME280;11276;43.566;27.824;2022-09-09T11:03:02;99050.28;;;29.40;32.45
22214;BME280;11276;43.566;27.824;2022-09-09T11:05:42;99077.09;;;29.36;29.53
22214;BME280;11276;43.566;27.824;2022-09-09T11:08:21;99077.19;;;29.13;30.22
22214;BME280;11276;43.566;27.824;2022-09-09T11:13:54;99068.56;;;29.04;31.89
22214;BME280;11276;43.566;27.824;2022-09-09T11:16:38;99080.63;;;29.08;31.25
22214;BME280;11276;43.566;27.824;2022-09-09T11:21:49;99074.63;;;28.95;30.14
22214;BME280;11276;43.566;27.824;2022-09-09T11:24:22;99070.44;;;28.76;31.01
22214;BME280;11276;43.566;27.824;2022-09-09T11:27:08;99065.97;;;28.46;30.87
22214;BME280;11276;43.566;27.824;2022-09-09T11:37:53;99059.56;;;28.87;32.71
22214;BME280;11276;43.566;27.824;2022-09-09T11:40:26;99054.34;;;28.97;35.36
22214;BME280;11276;43.566;27.824;2022-09-09T11:43:26;99044.09;;;28.36;35.50
22214;BME280;11276;43.566;27.824;2022-09-09T11:45:56;99039.69;;;28.58;34.09
22214;BME280;11276;43.566;27.824;2022-09-09T11:51:01;99046.78;;;28.48;35.62
22214;BME280;11276;43.566;27.824;2022-09-09T11:53:29;99021.13;;;28.39;36.89
22214;BME280;11276;43.566;27.824;2022-09-09T11:56:06;99030.19;;;28.44;37.41
22214;BME280;11276;43.566;27.824;2022-09-09T11:58:44;99042.88;;;28.55;36.18
22214;BME280;11276;43.566;27.824;2022-09-09T12:01:36;99038.63;;;28.59;37.50
22214;BME280;11276;43.566;27.824;2022-09-09T12:06:56;99034.41;;;28.40;38.77
22214;BME280;11276;43.566;27.824;2022-09-09T12:12:32;99031.81;;;28.45;39.93
22214;BME280;11276;43.566;27.824;2022-09-09T12:15:21;99038.22;;;28.16;40.70
22214;BME280;11276;43.566;27.824;2022-09-09T12:17:52;99045.38;;;27.99;41.91
22214;BME280;11276;43.566;27.824;2022-09-09T12:20:22;99041.50;;;28.18;39.54
22214;BME280;11276;43.566;27.824;2022-09-09T12:23:10;99028.53;;;28.08;41.13
22214;BME280;11276;43.566;27.824;2022-09-09T12:34:15;98999.09;;;27.77;44.25
22214;BME280;11276;43.566;27.824;2022-09-09T12:36:47;99004.53;;;27.89;41.22
22214;BME280;11276;43.566;27.824;2022-09-09T12:39:47;99016.88;;;27.73;42.85
22214;BME280;11276;43.566;27.824;2022-09-09T12:42:18;98992.44;;;27.38;42.64
22214;BME280;11276;43.566;27.824;2022-09-09T12:44:56;99008.16;;;27.71;41.44
22214;BME280;11276;43.566;27.824;2022-09-09T12:49:56;98992.03;;;27.76;45.28
22214;BME280;11276;43.566;27.824;2022-09-09T12:52:32;98996.25;;;27.60;45.45
22214;BME280;11276;43.566;27.824;2022-09-09T12:55:05;98995.59;;;27.47;45.26
22214;BME280;11276;43.566;27.824;2022-09-09T12:57:38;99005.53;;;27.53;44.59
22214;BME280;11276;43.566;27.824;2022-09-09T13:00:17;98989.22;;;27.59;44.52
22214;BME280;11276;43.566;27.824;2022-09-09T13:03:01;99001.78;;;27.54;43.30
22214;BME280;11276;43.566;27.824;2022-09-09T13:05:35;98982.47;;;27.09;45.40
22214;BME280;11276;43.566;27.824;2022-09-09T13:08:10;98997.91;;;27.20;44.86
22214;BME280;11276;43.566;27.824;2022-09-09T13:13:25;98994.13;;;27.09;44.91
22214;BME280;11276;43.566;27.824;2022-09-09T13:15:57;98990.59;;;27.09;48.52
22214;BME280;11276;43.566;27.824;2022-09-09T13:18:31;98967.16;;;27.03;48.66
22214;BME280;11276;43.566;27.824;2022-09-09T13:20:59;98987.28;;;27.07;47.00
22214;BME280;11276;43.566;27.824;2022-09-09T13:23:32;98984.38;;;26.90;47.75
22214;BME280;11276;43.566;27.824;2022-09-09T13:26:01;98974.06;;;26.69;47.54
22214;BME280;11276;43.566;27.824;2022-09-09T13:28:30;98986.56;;;26.81;47.22
22214;BME280;11276;43.566;27.824;2022-09-09T13:31:36;98991.38;;;26.79;47.00
22214;BME280;11276;43.566;27.824;2022-09-09T13:34:32;98963.72;;;26.95;48.39
22214;BME280;11276;43.566;27.824;2022-09-09T13:37:06;98991.84;;;27.06;48.71
22214;BME280;11276;43.566;27.824;2022-09-09T13:39:51;98993.84;;;26.99;50.51
22214;BME280;11276;43.566;27.824;2022-09-09T13:42:30;98965.78;;;26.82;51.52
22214;BME280;11276;43.566;27.824;2022-09-09T13:44:59;98980.59;;;27.09;50.22
22214;BME280;11276;43.566;27.824;2022-09-09T13:47:35;98987.06;;;27.08;52.30
22214;BME280;11276;43.566;27.824;2022-09-09T13:50:23;98986.97;;;27.15;51.15
22214;BME280;11276;43.566;27.824;2022-09-09T13:52:52;98988.06;;;26.95;55.12
22214;BME280;11276;43.566;27.824;2022-09-09T13:55:21;98981.25;;;26.75;55.32
22214;BME280;11276;43.566;27.824;2022-09-09T13:58:02;98977.31;;;26.59;55.93
22214;BME280;11276;43.566;27.824;2022-09-09T14:00:33;98972.06;;;26.46;56.55
22214;BME280;11276;43.566;27.824;2022-09-09T14:03:00;98979.56;;;26.44;58.22
22214;BME280;11276;43.566;27.824;2022-09-09T14:05:31;98953.84;;;26.23;58.63
22214;BME280;11276;43.566;27.824;2022-09-09T14:07:59;98954.56;;;26.30;55.07
22214;BME280;11276;43.566;27.824;2022-09-09T14:10:29;98973.56;;;26.42;55.36
22214;BME280;11276;43.566;27.824;2022-09-09T14:12:56;98971.31;;;26.39;57.53
22214;BME280;11276;43.566;27.824;2022-09-09T14:15:23;98963.28;;;26.14;58.36
22214;BME280;11276;43.566;27.824;2022-09-09T14:17:49;98958.44;;;25.98;59.17
22214;BME280;11276;43.566;27.824;2022-09-09T14:20:16;98967.22;;;25.93;60.17
22214;BME280;11276;43.566;27.824;2022-09-09T14:22:44;98960.75;;;25.76;61.59
22214;BME280;11276;43.566;27.824;2022-09-09T14:25:10;98965.72;;;25.97;61.42
22214;BME280;11276;43.566;27.824;2022-09-09T14:27:39;98949.94;;;25.76;62.64
22214;BME280;11276;43.566;27.824;2022-09-09T14:30:07;98956.94;;;26.02;62.96
22214;BME280;11276;43.566;27.824;2022-09-09T14:32:34;98964.22;;;26.01;61.60
22214;BME280;11276;43.566;27.824;2022-09-09T14:35:00;98973.34;;;26.00;62.77
22214;BME280;11276;43.566;27.824;2022-09-09T14:37:27;98949.84;;;25.89;61.34
22214;BME280;11276;43.566;27.824;2022-09-09T14:39:54;98950.06;;;26.06;61.10
22214;BME280;11276;43.566;27.824;2022-09-09T14:42:22;98962.56;;;26.00;62.21
22214;BME280;11276;43.566;27.824;2022-09-09T14:44:49;98962.81;;;25.99;63.58
22214;BME280;11276;43.566;27.824;2022-09-09T14:47:16;98949.69;;;25.84;64.44
22214;BME280;11276;43.566;27.824;2022-09-09T14:49:43;98957.00;;;25.52;66.86
22214;BME280;11276;43.566;27.824;2022-09-09T14:52:11;98949.50;;;25.29;67.25
22214;BME280;11276;43.566;27.824;2022-09-09T14:54:38;98949.59;;;25.16;67.86
22214;BME280;11276;43.566;27.824;2022-09-09T14:57:05;98957.78;;;25.35;68.78
22214;BME280;11276;43.566;27.824;2022-09-09T14:59:32;98954.63;;;25.06;69.67
22214;BME280;11276;43.566;27.824;2022-09-09T15:01:58;98954.69;;;25.00;72.32
22214;BME280;11276;43.566;27.824;2022-09-09T15:04:30;98943.34;;;24.91;74.89
22214;BME280;11276;43.566;27.824;2022-09-09T15:06:57;98929.44;;;24.94;77.25
22214;BME280;11276;43.566;27.824;2022-09-09T15:09:24;98954.09;;;24.98;76.42
22214;BME280;11276;43.566;27.824;2022-09-09T15:11:51;98945.00;;;24.92;75.60
22214;BME280;11276;43.566;27.824;2022-09-09T15:14:17;98927.91;;;24.67;79.79
22214;BME280;11276;43.566;27.824;2022-09-09T15:16:46;98947.03;;;24.59;80.65
22214;BME280;11276;43.566;27.824;2022-09-09T15:19:13;98952.41;;;24.59;81.44
22214;BME280;11276;43.566;27.824;2022-09-09T15:21:39;98942.94;;;24.43;80.94
22214;BME280;11276;43.566;27.824;2022-09-09T15:24:06;98946.69;;;24.42;81.39
22214;BME280;11276;43.566;27.824;2022-09-09T15:26:35;98930.31;;;24.43;81.61
22214;BME280;11276;43.566;27.824;2022-09-09T15:29:05;98953.16;;;24.21;82.51
22214;BME280;11276;43.566;27.824;2022-09-09T15:31:32;98938.47;;;24.30;82.91
22214;BME280;11276;43.566;27.824;2022-09-09T15:34:00;98924.81;;;24.12;84.37
22214;BME280;11276;43.566;27.824;2022-09-09T15:36:36;98943.88;;;24.11;86.68
22214;BME280;11276;43.566;27.824;2022-09-09T15:39:05;98957.53;;;24.09;84.84
22214;BME280;11276;43.566;27.824;2022-09-09T15:41:33;98941.78;;;24.13;83.62
22214;BME280;11276;43.566;27.824;2022-09-09T15:44:00;98949.31;;;23.91;85.22
22214;BME280;11276;43.566;27.824;2022-09-09T15:46:36;98948.25;;;23.92;86.46